createdAt,value
2019-02-12T00:02:23.816Z,88.38
2019-02-12T00:05:26.969Z,88.33
2019-02-12T00:08:30.057Z,87.78
2019-02-12T00:11:33.159Z,87.73
2019-02-12T00:14:36.236Z,87.55
2019-02-12T00:17:39.318Z,87.85
2019-02-12T00:20:42.407Z,88.02
2019-02-12T00:23:45.509Z,88.17
2019-02-12T00:26:48.598Z,88.86
2019-02-12T00:29:51.705Z,89.13
2019-02-12T00:32:54.813Z,89.34
2019-02-12T00:35:57.906Z,89.56
2019-02-12T00:39:01.077Z,89.59
2019-02-12T00:42:04.167Z,89.22
2019-02-12T00:45:07.326Z,89.06
2019-02-12T00:48:10.452Z,89.17
2019-02-12T00:51:17.828Z,89.22
2019-02-12T00:54:16.645Z,89.12
2019-02-12T00:57:19.741Z,89.40
2019-02-12T01:00:22.827Z,89.86
2019-02-12T01:03:25.887Z,89.76
2019-02-12T01:06:28.939Z,89.20
2019-02-12T01:09:32.100Z,89.47
2019-02-12T01:12:35.199Z,89.35
2019-02-12T01:15:38.286Z,88.81
2019-02-12T01:18:41.979Z,88.88
2019-02-12T01:21:45.085Z,88.88
2019-02-12T01:24:48.210Z,88.69
2019-02-12T01:27:51.368Z,88.35
2019-02-12T01:30:55.491Z,88.26
2019-02-12T01:33:58.558Z,88.39
2019-02-12T01:37:01.712Z,87.95
2019-02-12T01:40:04.792Z,88.82
2019-02-12T01:43:08.018Z,88.81
2019-02-12T01:46:11.158Z,88.51
2019-02-12T01:49:14.228Z,88.21
2019-02-12T01:52:17.299Z,88.33
2019-02-12T01:55:20.430Z,88.16
2019-02-12T01:58:23.548Z,87.95
2019-02-12T02:01:26.594Z,88.76
2019-02-12T02:04:29.701Z,89.40
2019-02-12T02:07:32.793Z,89.54
2019-02-12T02:10:35.875Z,89.98
2019-02-12T02:13:39.078Z,89.89
2019-02-12T02:16:42.175Z,90.54
2019-02-12T02:19:45.254Z,90.60
2019-02-12T02:22:48.344Z,90.94
2019-02-12T02:25:51.439Z,90.78
2019-02-12T02:28:54.518Z,90.52
2019-02-12T02:31:57.625Z,90.16
2019-02-12T02:35:00.712Z,90.62
2019-02-12T02:38:03.814Z,90.28
2019-02-12T02:41:06.900Z,90.15
2019-02-12T02:44:10.018Z,90.83
2019-02-12T02:47:13.096Z,91.14
2019-02-12T02:50:16.186Z,91.64
2019-02-12T02:53:19.267Z,92.08
2019-02-12T02:56:22.356Z,91.32
2019-02-12T02:59:25.478Z,91.54
2019-02-12T03:02:28.549Z,91.55
2019-02-12T03:05:31.648Z,91.33
2019-02-12T03:08:34.738Z,91.45
2019-02-12T03:11:37.798Z,92.02
2019-02-12T03:14:40.927Z,91.03
2019-02-12T03:17:44.259Z,91.30
2019-02-12T03:20:47.400Z,91.50
2019-02-12T03:23:50.491Z,91.23
2019-02-12T03:26:53.591Z,90.24
2019-02-12T03:29:56.664Z,91.08
2019-02-12T03:32:59.769Z,90.41
2019-02-12T03:36:02.880Z,90.43
2019-02-12T03:39:06.141Z,90.22
2019-02-12T03:42:09.228Z,90.47
2019-02-12T03:45:12.360Z,90.08
2019-02-12T03:48:15.431Z,90.37
2019-02-12T03:51:18.511Z,90.74
2019-02-12T03:54:21.633Z,90.99
2019-02-12T03:57:24.703Z,91.89
2019-02-12T04:00:27.800Z,92.06
2019-02-12T04:03:30.897Z,91.97
2019-02-12T04:06:33.987Z,92.12
2019-02-12T04:09:37.084Z,91.69
2019-02-12T04:12:40.185Z,92.01
2019-02-12T04:15:43.262Z,91.76
2019-02-12T04:18:46.353Z,91.71
2019-02-12T04:21:49.437Z,91.74
2019-02-12T04:24:52.527Z,91.20
2019-02-12T04:27:55.778Z,91.89
2019-02-12T04:30:58.733Z,91.87
2019-02-12T04:34:01.927Z,91.21
2019-02-12T04:37:05.122Z,91.40
2019-02-12T04:40:08.828Z,91.12
2019-02-12T04:43:11.912Z,91.71
2019-02-12T04:46:15.020Z,92.47
2019-02-12T04:49:18.200Z,92.46
2019-02-12T04:52:21.268Z,91.97
2019-02-12T04:55:24.371Z,92.60
2019-02-12T04:58:27.460Z,93.20
2019-02-12T05:01:30.556Z,92.58
2019-02-12T05:04:33.656Z,92.16
2019-02-12T05:07:36.748Z,92.71
2019-02-12T05:10:43.689Z,92.95
2019-02-12T05:13:46.824Z,93.49
2019-02-12T05:16:49.903Z,93.34
2019-02-12T05:19:53.002Z,92.07
2019-02-12T05:22:56.093Z,93.20
2019-02-12T05:25:59.166Z,93.20
2019-02-12T05:29:02.266Z,92.84
2019-02-12T05:32:05.355Z,92.73
2019-02-12T05:35:08.424Z,92.78
2019-02-12T05:38:11.553Z,93.10
2019-02-12T05:41:14.645Z,93.90
2019-02-12T05:44:17.758Z,93.67
2019-02-12T05:47:20.824Z,93.51
2019-02-12T05:50:23.935Z,93.77
2019-02-12T05:53:27.012Z,93.70
2019-02-12T05:56:30.104Z,92.98
2019-02-12T05:59:33.210Z,93.19
2019-02-12T06:02:36.388Z,93.38
2019-02-12T06:05:39.521Z,92.94
2019-02-12T06:08:42.673Z,94.09
2019-02-12T06:11:45.775Z,94.21
2019-02-12T06:14:48.851Z,94.47
2019-02-12T06:17:51.951Z,94.76
2019-02-12T06:20:55.025Z,93.64
2019-02-12T06:23:58.442Z,92.99
2019-02-12T06:27:01.516Z,92.84
2019-02-12T06:30:04.797Z,92.43
2019-02-12T06:33:07.989Z,92.31
2019-02-12T06:36:10.958Z,92.75
2019-02-12T06:39:14.016Z,93.18
2019-02-12T06:42:17.088Z,92.71
2019-02-12T06:45:20.196Z,93.81
2019-02-12T06:48:23.285Z,93.41
2019-02-12T06:51:26.376Z,94.35
2019-02-12T06:54:29.459Z,95.69
2019-02-12T06:57:32.572Z,95.83
2019-02-12T07:00:35.852Z,95.92
2019-02-12T07:03:54.309Z,96.49
2019-02-12T07:07:23.044Z,95.82
2019-02-12T07:10:30.716Z,96.05
2019-02-12T07:13:41.520Z,94.91
2019-02-12T07:19:10.621Z,94.90
2019-02-12T07:23:39.703Z,95.21
2019-02-12T07:27:05.541Z,93.81
2019-02-12T07:30:22.808Z,93.24
2019-02-12T07:33:35.876Z,93.42
2019-02-12T07:37:00.588Z,94.29
2019-02-12T07:40:15.542Z,95.14
2019-02-12T07:44:28.835Z,94.42
2019-02-12T07:47:44.812Z,94.44
2019-02-12T07:50:56.393Z,95.35
2019-02-12T07:56:14.175Z,94.43
2019-02-12T07:59:58.949Z,94.96
2019-02-12T08:04:15.864Z,94.79
2019-02-12T08:07:29.761Z,94.21
2019-02-12T08:10:52.194Z,94.26
2019-02-12T08:14:08.957Z,93.00
2019-02-12T08:17:41.211Z,93.72
2019-02-12T08:22:56.012Z,92.97
2019-02-12T08:26:13.856Z,92.91
2019-02-12T08:30:29.247Z,92.91
2019-02-12T08:34:51.111Z,92.19
2019-02-12T08:40:05.852Z,92.38
2019-02-12T08:43:22.395Z,91.88
2019-02-12T08:46:36.709Z,91.05
2019-02-12T08:49:50.660Z,91.95
2019-02-12T08:53:02.448Z,91.10
2019-02-12T08:58:17.856Z,91.44
2019-02-12T09:03:50.044Z,90.83
2019-02-12T09:07:08.872Z,89.68
2019-02-12T09:10:24.977Z,89.97
2019-02-12T09:13:45.059Z,89.33
2019-02-12T09:18:59.714Z,89.09
2019-02-12T09:24:19.090Z,88.42
2019-02-12T09:27:33.846Z,88.35
2019-02-12T09:30:50.856Z,88.55
2019-02-12T09:34:05.861Z,87.86
2019-02-12T09:37:20.335Z,87.87
2019-02-12T09:40:34.803Z,87.68
2019-02-12T09:43:56.600Z,87.24
2019-02-12T09:47:33.601Z,87.59
2019-02-12T09:50:54.677Z,85.83
2019-02-12T09:54:10.651Z,85.18
2019-02-12T09:59:26.825Z,85.35
2019-02-12T10:02:40.808Z,84.89
2019-02-12T10:07:59.688Z,84.65
2019-02-12T10:11:27.459Z,83.49
2019-02-12T10:14:40.456Z,83.08
2019-02-12T10:17:53.795Z,82.78
2019-02-12T10:21:06.033Z,82.98
2019-02-12T10:24:24.244Z,83.19
2019-02-12T10:29:47.339Z,83.17
2019-02-12T10:32:50.504Z,82.99
2019-02-12T10:35:53.674Z,81.89
2019-02-12T10:38:56.764Z,81.48
2019-02-12T10:41:59.853Z,79.81
2019-02-12T10:45:02.958Z,78.89
2019-02-12T10:48:06.044Z,79.34
2019-02-12T10:51:09.148Z,78.39
2019-02-12T10:54:13.575Z,76.93
2019-02-12T10:57:15.527Z,75.88
2019-02-12T11:00:18.603Z,75.69
2019-02-12T11:03:21.688Z,75.15
2019-02-12T11:06:24.804Z,73.47
2019-02-12T11:09:27.986Z,72.59
2019-02-12T11:12:31.084Z,73.45
2019-02-12T11:15:34.169Z,73.10
2019-02-12T11:18:37.255Z,73.85
2019-02-12T11:21:40.348Z,73.81
2019-02-12T11:24:43.441Z,72.49
2019-02-12T11:27:46.536Z,69.45
2019-02-12T11:30:49.636Z,70.41
2019-02-12T11:33:52.715Z,70.11
2019-02-12T11:36:55.800Z,70.01
2019-02-12T11:39:58.891Z,70.44
2019-02-12T11:43:01.983Z,69.72
2019-02-12T11:46:05.085Z,66.37
2019-02-12T11:49:08.164Z,66.05
2019-02-12T11:52:11.269Z,64.17
2019-02-12T11:55:14.392Z,63.15
2019-02-12T11:58:17.556Z,62.88
2019-02-12T12:01:23.136Z,64.28
2019-02-12T12:04:26.204Z,64.09
2019-02-12T12:07:29.264Z,64.33
2019-02-12T12:10:32.330Z,64.04
2019-02-12T12:13:35.487Z,63.85
2019-02-12T12:16:38.560Z,62.24
2019-02-12T12:19:41.656Z,62.72
2019-02-12T12:22:44.762Z,62.33
2019-02-12T12:25:47.848Z,62.56
2019-02-12T12:28:50.942Z,61.82
2019-02-12T12:31:54.047Z,61.84
2019-02-12T12:34:59.095Z,60.26
2019-02-12T12:38:00.329Z,58.86
2019-02-12T12:41:04.438Z,60.20
2019-02-12T12:44:07.561Z,60.54
2019-02-12T12:47:10.762Z,60.38
2019-02-12T12:50:13.914Z,60.38
2019-02-12T12:53:17.000Z,61.04
2019-02-12T12:56:20.119Z,60.37
2019-02-12T12:59:23.187Z,60.77
2019-02-12T13:02:26.280Z,59.79
2019-02-12T13:05:29.371Z,59.45
2019-02-12T13:08:32.459Z,60.12
2019-02-12T13:11:35.562Z,59.61
2019-02-12T13:14:38.648Z,58.45
2019-02-12T13:17:41.752Z,58.01
2019-02-12T13:20:44.844Z,56.00
2019-02-12T13:23:47.913Z,56.93
2019-02-12T13:26:50.991Z,57.25
2019-02-12T13:29:54.128Z,57.15
2019-02-12T13:32:57.312Z,57.78
2019-02-12T13:36:00.460Z,57.34
2019-02-12T13:39:05.297Z,57.01
2019-02-12T13:42:08.365Z,55.93
2019-02-12T13:45:12.761Z,56.61
2019-02-12T13:48:15.935Z,55.95
2019-02-12T13:51:19.034Z,54.97
2019-02-12T13:54:22.130Z,56.47
2019-02-12T13:57:25.218Z,56.09
2019-02-12T14:00:28.279Z,56.53
2019-02-12T14:03:31.456Z,55.66
2019-02-12T14:06:34.498Z,54.68
2019-02-12T14:09:37.587Z,54.98
2019-02-12T14:12:40.685Z,56.42
2019-02-12T14:15:43.772Z,54.96
2019-02-12T14:18:46.824Z,55.05
2019-02-12T14:21:49.895Z,52.94
2019-02-12T14:24:53.063Z,53.37
2019-02-12T14:27:56.255Z,51.70
2019-02-12T14:30:59.440Z,49.78
2019-02-12T14:34:02.572Z,50.39
2019-02-12T14:37:05.714Z,51.26
2019-02-12T14:40:09.744Z,50.76
2019-02-12T14:43:14.377Z,52.78
2019-02-12T14:46:15.879Z,53.94
2019-02-12T14:49:19.035Z,53.75
2019-02-12T14:52:22.212Z,55.08
2019-02-12T14:55:33.347Z,55.01
2019-02-12T14:58:28.585Z,55.29
2019-02-12T15:01:36.484Z,55.25
2019-02-12T15:04:39.598Z,55.96
2019-02-12T15:07:42.719Z,56.27
2019-02-12T15:10:45.815Z,56.11
2019-02-12T15:13:48.983Z,56.25
2019-02-12T15:16:52.178Z,55.68
2019-02-12T15:19:55.361Z,55.33
2019-02-12T15:22:58.484Z,55.58
2019-02-12T15:26:01.661Z,56.29
2019-02-12T15:29:04.850Z,55.18
2019-02-12T15:32:07.910Z,54.73
2019-02-12T15:35:11.048Z,54.42
2019-02-12T15:38:14.123Z,55.50
2019-02-12T15:41:17.224Z,55.00
2019-02-12T15:44:20.334Z,55.33
2019-02-12T15:47:23.532Z,55.69
2019-02-12T15:50:26.699Z,55.73
2019-02-12T15:53:29.795Z,56.00
2019-02-12T15:56:32.891Z,56.72
2019-02-12T15:59:36.111Z,57.40
2019-02-12T16:02:39.472Z,57.96
2019-02-12T16:05:42.563Z,58.80
2019-02-12T16:08:45.679Z,58.75
2019-02-12T16:11:48.860Z,59.48
2019-02-12T16:14:53.060Z,59.91
2019-02-12T16:17:55.028Z,60.67
2019-02-12T16:20:58.133Z,60.55
2019-02-12T16:24:01.231Z,61.31
2019-02-12T16:27:04.303Z,61.30
2019-02-12T16:30:10.286Z,61.73
2019-02-12T16:33:13.420Z,61.31
2019-02-12T16:36:16.564Z,61.88
2019-02-12T16:39:19.659Z,62.56
2019-02-12T16:42:22.761Z,62.66
2019-02-12T16:45:29.780Z,62.22
2019-02-12T16:48:32.907Z,62.86
2019-02-12T16:51:35.995Z,63.46
2019-02-12T16:54:39.102Z,63.47
2019-02-12T16:57:42.307Z,63.96
2019-02-12T17:00:45.505Z,64.32
2019-02-12T17:03:48.596Z,65.14
2019-02-12T17:06:51.671Z,64.02
2019-02-12T17:09:54.780Z,63.68
2019-02-12T17:12:57.894Z,64.02
2019-02-12T17:16:00.964Z,64.00
2019-02-12T17:19:04.792Z,64.41
2019-02-12T17:22:07.968Z,64.81
2019-02-12T17:25:11.206Z,65.12
2019-02-12T17:28:14.361Z,65.43
2019-02-12T17:31:17.552Z,65.01
2019-02-12T17:34:20.739Z,65.45
2019-02-12T17:37:23.835Z,65.79
2019-02-12T17:40:26.921Z,66.14
2019-02-12T17:43:30.003Z,66.33
2019-02-12T17:46:33.073Z,66.39
2019-02-12T17:49:36.154Z,66.76
2019-02-12T17:52:39.324Z,67.23
2019-02-12T17:55:42.488Z,67.90
2019-02-12T17:58:45.604Z,68.33
2019-02-12T18:01:48.771Z,68.73
2019-02-12T18:04:51.871Z,69.08
2019-02-12T18:07:54.956Z,69.23
2019-02-12T18:10:58.080Z,68.59
2019-02-12T18:14:01.237Z,68.64
2019-02-12T18:17:04.385Z,69.09
2019-02-12T18:20:08.079Z,69.14
2019-02-12T18:23:11.226Z,69.26
2019-02-12T18:26:14.313Z,69.30
2019-02-12T18:29:17.412Z,69.35
2019-02-12T18:32:20.594Z,69.61
2019-02-12T18:35:23.759Z,69.67
2019-02-12T18:38:26.893Z,69.86
2019-02-12T18:41:30.015Z,69.75
2019-02-12T18:44:33.100Z,68.92
2019-02-12T18:47:36.193Z,69.37
2019-02-12T18:50:39.390Z,69.01
2019-02-12T18:53:42.580Z,69.11
2019-02-12T18:56:45.687Z,68.97
2019-02-12T18:59:48.757Z,69.66
2019-02-12T19:02:52.596Z,69.73
2019-02-12T19:05:55.779Z,69.70
2019-02-12T19:08:58.956Z,68.56
2019-02-12T19:12:02.099Z,68.93
2019-02-12T19:15:05.661Z,68.53
2019-02-12T19:18:12.692Z,68.88
2019-02-12T19:21:15.792Z,69.20
2019-02-12T19:24:19.020Z,69.50
2019-02-12T19:27:22.106Z,69.75
2019-02-12T19:30:25.231Z,69.93
2019-02-12T19:33:28.303Z,70.66
2019-02-12T19:36:31.552Z,70.56
2019-02-12T19:39:34.705Z,70.87
2019-02-12T19:42:37.955Z,71.38
2019-02-12T19:45:41.091Z,71.41
2019-02-12T19:48:44.327Z,71.74
2019-02-12T19:51:47.485Z,71.41
2019-02-12T19:54:50.656Z,71.19
2019-02-12T19:57:53.775Z,71.93
2019-02-12T20:00:56.948Z,71.90
2019-02-12T20:04:00.163Z,72.03
2019-02-12T20:07:03.412Z,72.03
2019-02-12T20:10:07.124Z,72.21
2019-02-12T20:13:10.262Z,72.24
2019-02-12T20:16:13.429Z,72.51
2019-02-12T20:19:16.559Z,72.99
2019-02-12T20:22:19.716Z,72.97
2019-02-12T20:25:22.823Z,73.31
2019-02-12T20:28:26.015Z,74.22
2019-02-12T20:31:29.203Z,74.11
2019-02-12T20:34:32.379Z,73.88
2019-02-12T20:37:35.452Z,74.10
2019-02-12T20:40:38.532Z,74.52
2019-02-12T20:43:41.692Z,74.88
2019-02-12T20:46:44.937Z,75.62
2019-02-12T20:49:48.080Z,76.33
2019-02-12T20:52:51.303Z,77.05
2019-02-12T20:55:54.448Z,77.19
2019-02-12T20:58:57.643Z,77.72
2019-02-12T21:02:00.848Z,77.55
2019-02-12T21:05:04.035Z,77.64
2019-02-12T21:08:07.295Z,77.33
2019-02-12T21:11:10.370Z,78.04
2019-02-12T21:14:13.555Z,78.88
2019-02-12T21:17:16.747Z,79.37
2019-02-12T21:20:19.904Z,78.91
2019-02-12T21:23:22.981Z,79.27
2019-02-12T21:26:26.120Z,80.05
2019-02-12T21:29:29.274Z,80.44
2019-02-12T21:32:32.365Z,79.73
2019-02-12T21:35:35.476Z,80.40
2019-02-12T21:38:38.675Z,79.48
2019-02-12T21:41:41.862Z,79.33
2019-02-12T21:44:45.073Z,79.15
2019-02-12T21:47:48.185Z,79.72
2019-02-12T21:50:51.339Z,81.31
2019-02-12T21:53:54.425Z,82.26
2019-02-12T21:56:57.520Z,81.67
2019-02-12T22:00:00.730Z,81.67
2019-02-12T22:03:03.907Z,81.30
2019-02-12T22:06:07.007Z,80.91
2019-02-12T22:09:10.196Z,81.09
2019-02-12T22:12:13.396Z,82.16
2019-02-12T22:15:16.593Z,82.85
2019-02-12T22:18:19.764Z,82.91
2019-02-12T22:21:22.875Z,82.63
2019-02-12T22:24:26.253Z,82.83
2019-02-12T22:27:29.388Z,82.54
2019-02-12T22:30:32.510Z,81.82
2019-02-12T22:33:35.639Z,82.05
2019-02-12T22:36:38.747Z,83.07
2019-02-12T22:39:41.925Z,83.58
2019-02-12T22:42:45.943Z,83.54
2019-02-12T22:45:49.159Z,83.86
2019-02-12T22:48:52.353Z,84.01
2019-02-12T22:51:55.540Z,83.28
2019-02-12T22:54:58.722Z,82.49
2019-02-12T22:58:01.829Z,82.77
2019-02-12T23:01:08.698Z,82.54
2019-02-12T23:04:11.799Z,83.45
2019-02-12T23:07:14.984Z,83.88
2019-02-12T23:10:18.076Z,83.99
2019-02-12T23:13:21.156Z,83.80
2019-02-12T23:16:24.337Z,84.22
2019-02-12T23:19:27.492Z,84.50
2019-02-12T23:22:30.641Z,84.90
2019-02-12T23:25:33.745Z,84.90
2019-02-12T23:28:36.939Z,84.60
2019-02-12T23:31:40.156Z,83.86
2019-02-12T23:34:43.309Z,83.13
2019-02-12T23:37:46.426Z,83.45
2019-02-12T23:40:49.707Z,83.36
2019-02-12T23:43:52.946Z,83.24
2019-02-12T23:46:56.194Z,82.86
2019-02-12T23:49:59.312Z,84.50
2019-02-12T23:53:02.387Z,85.53
2019-02-12T23:56:05.585Z,86.00
2019-02-12T23:59:08.665Z,85.76
